Historyczne dane pomiarowe

Dodano dane terminowe – wersja testowa.

Dane z okresu 1951-2019

Wersja bazy: 1.34 [2019-03-16, lista zmian], aktualizacja planowana na 2019-04-15

Dane meteo z obszaru Polski uzyskane na podstawie danych udostępnionych przez Instytut Meteorologii i Gospodarki Wodnej – Państwowy Instytut Badawczy.

 

Wybierz Datę:    

       

TemperaturaWilgotnośćWiatrCiśnienieOpadyŚniegCzas trwania zjawisk
 Stacja t tx tn tng RH VA  wxwx mslp ppp RRR   cm mm wxwxwxwxwxwxwx
1994-08-14 11.0 15.2 8.1 10.2 65.0- 6.3 0.0---- 0.0------------
1994-08-13 12.8 16.7 9.9 10.2 77.8- 5.0 1.0---- 0.0------------
1994-08-12 11.6 14.8 10.2 8.8 90.5- 8.0 0.3---- 5.8------------
1994-08-11 16.8 21.2 11.8 10.2 76.8- 6.7 0.0---- 6.4------------
1994-08-10 14.2 23.8 5.2 7.0 76.8- 2.7 0.0---- 0.0------------
1994-08-09 15.9 19.6 13.9 13.8 76.3- 7.0 0.0---- 1.2------------
1994-08-08 16.6 23.7 10.2 8.3 81.5- 5.7 1.7---- 0.2------------
1994-08-07 13.9 21.4 12.0 9.5 92.5- 6.7 0.0---- 5.3------------
1994-08-06 16.9 24.4 10.4 8.1 74.0- 4.7 0.0---- 0.0------------
1994-08-05 16.6 24.8 9.1 7.4 76.8- 2.3 0.3---- 0.0------------
1994-08-04 16.7 22.4 9.7 7.2 78.5- 6.7 0.3---- 0.0------------
1994-08-03 15.5 21.6 10.2 7.9 88.5- 5.7 0.0---- 1.3------------
1994-08-02 16.5 25.6 9.4 7.3 78.0- 4.0 0.0---- 3.3------------
1994-08-01 17.4 26.3 11.2 8.5 73.0- 5.0 0.0---- 0.3------------
1994-07-31 18.9 28.3 10.7 7.8 62.0- 2.3 0.0---- 0.0------------
1994-07-30 16.9 27.3 9.5 6.9 68.3- 2.7 0.3---- 0.0------------
1994-07-29 16.8 26.1 7.7 5.3 64.8- 2.3 1.0---- 0.0------------
1994-07-28 16.4 24.9 9.0 6.6 71.8- 2.7 0.3---- 0.0------------
1994-07-27 16.8 26.0 8.9 6.7 67.0- 2.0 0.3---- 0.0------------
1994-07-26 16.7 24.7 9.0 9.7 72.8- 3.0 0.0---- 0.0------------
1994-07-25 15.8 23.8 8.3 8.3 73.3- 4.3 0.0---- 0.3------------
1994-07-24 14.6 22.4 8.4 6.4 73.5- 4.3 0.0---- 0.0------------
1994-07-23 13.6 23.2 5.3 3.2 73.5- 1.7 0.3---- 0.0------------
1994-07-22 12.3 22.1 3.6 2.0 74.5- 1.0 0.3---- 0.0------------
1994-07-21 11.3 20.6 3.1 1.5 78.5- 0.7 0.3---- 0.0------------
1994-07-20 12.8 19.1 7.0 5.4 80.8- 3.3 0.3---- 0.0------------
1994-07-19 14.5 17.0 12.6 11.4 90.3- 7.3 0.3---- 0.0------------
1994-07-18 15.3 19.6 12.1 9.9 89.5- 6.3 0.7---- 21.4------------
1994-07-17 13.3 17.8 8.2 7.5 94.5- 3.7 0.0---- 12.9------------
1994-07-16 13.1 18.1 8.1 4.4 95.0- 6.0 0.0---- 1.6------------
1994-07-15 11.7 18.3 6.9 5.4 90.5- 6.3 0.0---- 2.7------------
1994-07-14 13.1 20.4 7.1 4.4 84.8- 3.7 0.0---- 8.9------------
1994-07-13 13.0 19.4 6.8 4.4 84.3- 4.3 0.3---- 0.0------------
1994-07-12 12.8 17.8 8.0 5.9 88.3- 5.0 0.3---- 0.0------------
1994-07-11 12.3 15.4 10.1 8.3 86.3- 7.0 1.7---- 0.7------------
1994-07-10 8.9 10.1 7.6 7.3 96.8- 8.0 1.0---- 18.6------------
1994-07-09 9.5 15.2 5.6 3.4 85.3- 8.0 0.3---- 17.4------------
1994-07-08 11.3 15.8 7.4 8.1 72.8- 5.0 0.7---- 0.0------------
1994-07-07 11.4 17.3 6.9 4.9 92.3- 6.3 0.0---- 21.4------------
1994-07-06 15.4 20.7 11.2 8.3 64.5- 3.0 0.7---- 0.0------------
1994-07-05 14.4 21.8 8.2 8.3 77.0- 3.7 0.3---- 0.0------------
1994-07-04 14.8 24.4 5.8 3.5 71.5- 1.0 0.0---- 0.0------------
1994-07-03 13.6 23.2 4.9 1.9 75.8- 1.7 0.3---- 0.0------------
1994-07-02 11.6 20.8 3.0 1.0 80.0- 0.7 0.3---- 0.0------------
1994-07-01 12.6 16.6 11.0 11.2 95.3- 5.3 0.0---- 0.1------------
1994-06-30 16.0 21.7 12.0 9.4 92.3- 6.0 0.3---- 14.2------------
1994-06-29 17.2 25.6 9.6 6.9 83.3- 4.0 0.3---- 2.0------------
1994-06-28 18.0 26.0 12.6 9.4 80.8- 5.0 0.3---- 0.0------------
1994-06-27 17.8 26.9 10.6 8.5 79.8- 5.3 0.0---- 0.1------------
1994-06-26 15.2 25.4 3.9 3.8 66.3- 1.7 0.3---- 0.0------------
1994-06-25 9.4 21.1 -2.0 -2.1 62.8- 0.0 0.3---- 0.0------------
1994-06-24 9.8 17.3 1.4 -0.5 59.8- 0.0 0.3---- 0.0------------
1994-06-23 12.5 18.0 9.4 9.9 75.5- 7.0 0.7---- 0.7------------
1994-06-22 13.0 22.2 2.4 1.1 71.8- 4.7 1.0---- 1.4------------
1994-06-21 11.8 17.7 6.7 3.9 69.8- 2.0 0.3---- 0.0------------
1994-06-20 12.3 18.8 6.4 5.6 78.3- 5.3 0.3---- 0.0------------
1994-06-19 11.4 18.2 7.2 5.8 75.5- 4.0 1.0---- 0.0------------
1994-06-18 7.2 13.4 -0.2 0.5 84.8- 6.0 0.7---- 9.4------------
1994-06-17 5.8 9.5 4.6 4.6 87.3- 7.3 0.3---- 7.4------------
1994-06-16 7.8 12.4 2.9 0.3 73.5- 7.0 2.3---- 2.6------------
317.2 ms

 

Źródłem pochodzenia danych jest Instytut Meteorologii i Gospodarki Wodnej – Państwowy Instytut Badawczy. Dane Instytutu Meteorologii i Gospodarki Wodnej – Państwowego Instytutu Badawczego zostały przetworzone.

Dane źródłowe można odnaleźć na stronie https://dane.imgw.pl